createdAt,value
2023-01-13T00:03:49.949Z,7.90
2023-01-13T00:08:53.873Z,7.90
2023-01-13T00:13:56.548Z,7.80
2023-01-13T00:18:59.112Z,8.10
2023-01-13T00:24:01.767Z,8.00
2023-01-13T00:29:04.250Z,8.00
2023-01-13T00:34:06.822Z,8.20
2023-01-13T00:39:09.482Z,8.20
2023-01-13T00:44:12.015Z,8.40
2023-01-13T00:49:14.729Z,8.50
2023-01-13T00:54:17.240Z,8.40
2023-01-13T00:59:19.745Z,8.40
2023-01-13T01:04:22.286Z,8.30
2023-01-13T01:09:32.579Z,8.20
2023-01-13T01:14:35.080Z,8.20
2023-01-13T01:19:38.793Z,8.20
2023-01-13T01:24:41.303Z,8.20
2023-01-13T01:29:43.762Z,8.10
2023-01-13T01:34:46.303Z,8.10
2023-01-13T01:39:48.853Z,8.10
2023-01-13T01:45:00.205Z,8.20
2023-01-13T01:50:04.198Z,8.10
2023-01-13T01:55:18.259Z,8.10
2023-01-13T02:00:21.232Z,8.10
2023-01-13T02:05:24.600Z,8.00
2023-01-13T02:10:29.130Z,8.00
2023-01-13T02:15:56.377Z,8.10
2023-01-13T02:21:12.332Z,8.10
2023-01-13T02:26:33.049Z,8.10
2023-01-13T02:31:43.177Z,8.00
2023-01-13T02:37:06.912Z,8.50
2023-01-13T02:42:33.091Z,8.70
2023-01-13T02:47:39.129Z,8.50
2023-01-13T02:52:46.675Z,8.80
2023-01-13T02:57:52.596Z,8.70
2023-01-13T03:02:55.446Z,8.60
2023-01-13T03:08:25.694Z,8.50
2023-01-13T03:14:01.365Z,8.70
2023-01-13T03:19:30.447Z,8.60
2023-01-13T03:24:41.993Z,8.50
2023-01-13T03:29:47.423Z,8.50
2023-01-13T03:34:54.365Z,8.50
2023-01-13T03:40:04.489Z,8.50
2023-01-13T03:45:17.445Z,8.60
2023-01-13T03:50:28.410Z,8.50
2023-01-13T03:55:54.034Z,8.60
2023-01-13T04:00:58.776Z,9.10
2023-01-13T04:06:21.930Z,8.90
2023-01-13T04:11:42.857Z,9.20
2023-01-13T04:16:45.357Z,9.40
2023-01-13T04:21:48.041Z,9.30
2023-01-13T04:26:50.789Z,9.20
2023-01-13T04:31:53.390Z,9.30
2023-01-13T04:36:55.974Z,9.20
2023-01-13T04:41:58.399Z,9.40
2023-01-13T04:47:02.231Z,9.60
2023-01-13T04:52:07.170Z,9.50
2023-01-13T04:57:09.800Z,9.30
2023-01-13T05:02:19.817Z,9.70
2023-01-13T05:07:22.473Z,9.60
2023-01-13T05:12:43.785Z,9.60
2023-01-13T05:17:46.724Z,10.00
2023-01-13T05:23:08.145Z,10.10
2023-01-13T05:28:11.064Z,9.60
2023-01-13T05:33:16.273Z,9.90
2023-01-13T05:38:18.970Z,9.70
2023-01-13T05:43:25.177Z,9.30
2023-01-13T05:48:32.393Z,9.20
2023-01-13T05:53:35.327Z,9.20
2023-01-13T05:58:38.268Z,9.20
2023-01-13T06:03:40.903Z,9.00
2023-01-13T06:08:43.571Z,8.70
2023-01-13T06:13:46.057Z,8.60
2023-01-13T06:18:48.642Z,8.60
2023-01-13T06:23:51.187Z,8.50
2023-01-13T06:28:53.605Z,8.60
2023-01-13T06:34:02.626Z,8.50
2023-01-13T06:39:05.267Z,8.40
2023-01-13T06:44:07.922Z,8.30
2023-01-13T06:49:10.451Z,8.30
2023-01-13T06:54:13.044Z,8.20
2023-01-13T06:59:15.491Z,8.20
2023-01-13T07:04:18.923Z,8.10
2023-01-13T07:09:21.534Z,8.60
2023-01-13T07:14:42.487Z,8.70
2023-01-13T07:19:45.006Z,8.60
2023-01-13T07:24:47.606Z,8.60
2023-01-13T07:29:50.320Z,8.50
2023-01-13T07:34:53.072Z,8.50
2023-01-13T07:39:55.627Z,8.40
2023-01-13T07:44:58.268Z,8.50
2023-01-13T07:50:00.870Z,8.70
2023-01-13T07:55:03.425Z,9.20
2023-01-13T08:00:06.572Z,9.40
2023-01-13T08:05:09.692Z,9.80
2023-01-13T08:10:12.261Z,10.10
2023-01-13T08:15:14.876Z,10.50
2023-01-13T08:20:17.529Z,10.50
2023-01-13T08:25:21.359Z,10.60
2023-01-13T08:30:23.953Z,10.20
2023-01-13T08:35:26.519Z,10.40
2023-01-13T08:40:28.994Z,10.60
2023-01-13T08:45:31.560Z,11.10
2023-01-13T08:50:34.098Z,11.00
2023-01-13T08:55:36.612Z,11.20
2023-01-13T09:00:39.143Z,11.30
2023-01-13T09:05:41.639Z,11.30
2023-01-13T09:10:44.309Z,11.50
2023-01-13T09:15:47.375Z,11.40
2023-01-13T09:20:50.019Z,11.60
2023-01-13T09:25:53.356Z,11.50
2023-01-13T09:31:00.344Z,11.50
2023-01-13T09:36:02.938Z,11.50
2023-01-13T09:41:25.862Z,11.80
2023-01-13T09:46:47.236Z,11.40
2023-01-13T09:52:02.641Z,11.60
2023-01-13T09:57:14.505Z,12.50
2023-01-13T10:02:26.904Z,12.60
2023-01-13T10:07:31.899Z,12.90
2023-01-13T10:12:52.840Z,12.80
2023-01-13T10:18:08.527Z,12.80
2023-01-13T10:23:34.570Z,13.00
2023-01-13T10:28:37.135Z,13.20
2023-01-13T10:33:39.630Z,13.00
2023-01-13T10:38:45.672Z,13.00
2023-01-13T10:44:08.446Z,13.10
2023-01-13T10:49:37.172Z,13.20
2023-01-13T10:54:52.325Z,13.50
2023-01-13T11:05:25.168Z,13.50
2023-01-13T11:10:31.421Z,13.70
2023-01-13T11:16:02.462Z,13.70
2023-01-13T11:21:17.539Z,13.80
2023-01-13T11:26:29.281Z,13.50
2023-01-13T11:31:36.897Z,14.00
2023-01-13T11:36:47.802Z,13.50
2023-01-13T11:42:22.487Z,13.40
2023-01-13T11:47:26.805Z,13.00
2023-01-13T11:52:51.200Z,12.90
2023-01-13T11:58:33.785Z,12.60
2023-01-13T12:03:46.556Z,12.60
2023-01-13T12:09:02.086Z,12.70
2023-01-13T12:14:20.562Z,12.40
2023-01-13T12:19:29.677Z,12.40
2023-01-13T12:24:45.955Z,12.20
2023-01-13T12:29:50.706Z,12.20
2023-01-13T12:35:16.796Z,12.40
2023-01-13T12:40:34.806Z,12.20
2023-01-13T12:45:37.456Z,12.30
2023-01-13T12:50:41.406Z,13.00
2023-01-13T12:55:44.115Z,13.30
2023-01-13T13:00:48.840Z,13.10
2023-01-13T13:05:56.304Z,13.10
2023-01-13T13:11:32.768Z,12.80
2023-01-13T13:16:45.352Z,12.60
2023-01-13T13:22:13.004Z,12.40
2023-01-13T13:27:47.707Z,12.40
2023-01-13T13:33:20.776Z,11.80
2023-01-13T13:39:00.954Z,11.30
2023-01-13T13:44:33.001Z,10.70
2023-01-13T13:49:41.400Z,10.20
2023-01-13T13:54:49.268Z,10.00
2023-01-13T13:59:56.121Z,9.80
2023-01-13T14:05:34.656Z,9.70
2023-01-13T14:10:39.944Z,9.60
2023-01-13T14:15:42.508Z,9.00
2023-01-13T14:21:00.204Z,8.60
2023-01-13T14:26:08.917Z,8.30
2023-01-13T14:31:14.338Z,8.40
2023-01-13T14:36:18.939Z,9.00
2023-01-13T14:41:25.646Z,10.20
2023-01-13T14:46:43.013Z,10.60
2023-01-13T14:51:45.514Z,11.20
2023-01-13T14:56:55.179Z,11.50
2023-01-13T15:01:57.906Z,11.80
2023-01-13T15:07:01.366Z,12.40
2023-01-13T15:12:23.622Z,12.10
2023-01-13T15:17:29.431Z,11.70
2023-01-13T15:27:34.672Z,13.00
2023-01-13T15:32:37.213Z,13.30
2023-01-13T15:37:40.209Z,13.20
2023-01-13T15:48:04.537Z,13.30
2023-01-13T15:53:07.300Z,13.90
2023-01-13T15:58:14.836Z,14.30
2023-01-13T16:03:17.519Z,14.30
2023-01-13T16:08:22.468Z,14.50
2023-01-13T16:13:24.896Z,14.50
2023-01-13T16:18:27.482Z,14.40
2023-01-13T16:23:30.115Z,14.10
2023-01-13T16:28:35.419Z,13.30
2023-01-13T16:33:37.903Z,13.10
2023-01-13T16:38:40.475Z,12.60
2023-01-13T16:43:43.817Z,12.30
2023-01-13T16:48:46.928Z,12.20
2023-01-13T16:53:50.323Z,12.40
2023-01-13T16:58:58.088Z,12.60
2023-01-13T17:04:01.149Z,11.90
2023-01-13T17:09:19.116Z,12.40
2023-01-13T17:14:23.650Z,11.50
2023-01-13T17:19:26.349Z,10.80
2023-01-13T17:24:31.131Z,10.40
2023-01-13T17:29:34.280Z,10.00
2023-01-13T17:34:36.892Z,9.30
2023-01-13T17:39:39.823Z,9.20
2023-01-13T17:44:42.653Z,9.10
2023-01-13T17:49:45.413Z,9.20
2023-01-13T17:54:48.083Z,9.20
2023-01-13T17:59:50.857Z,9.70
2023-01-13T18:04:53.487Z,9.50
2023-01-13T18:09:56.035Z,9.20
2023-01-13T18:14:58.643Z,8.80
2023-01-13T18:20:19.766Z,8.10
2023-01-13T18:25:40.915Z,8.10
2023-01-13T18:30:43.666Z,8.40
2023-01-13T18:35:46.327Z,9.20
2023-01-13T18:40:49.034Z,10.00
2023-01-13T18:45:51.702Z,9.60
2023-01-13T18:50:54.333Z,9.50
2023-01-13T18:55:56.908Z,9.10
2023-01-13T19:01:03.988Z,8.90
2023-01-13T19:06:11.805Z,8.70
2023-01-13T19:11:14.666Z,8.30
2023-01-13T19:16:23.528Z,8.30
2023-01-13T19:21:26.535Z,8.20
2023-01-13T19:31:32.148Z,7.00
2023-01-13T19:36:34.965Z,8.20
2023-01-13T19:41:56.575Z,9.10
2023-01-13T19:46:59.589Z,9.30
2023-01-13T19:52:02.534Z,7.40
2023-01-13T19:57:06.171Z,8.50
2023-01-13T20:02:31.750Z,9.30
2023-01-13T20:07:35.364Z,10.10
2023-01-13T20:12:37.845Z,10.40
2023-01-13T20:17:41.555Z,10.90
2023-01-13T20:22:44.744Z,11.20
2023-01-13T20:27:48.066Z,11.10
2023-01-13T20:32:50.927Z,11.50
2023-01-13T20:37:53.643Z,11.30
2023-01-13T20:42:56.812Z,11.90
2023-01-13T20:47:59.499Z,12.00
2023-01-13T20:53:02.087Z,12.50
2023-01-13T20:58:04.506Z,12.20
2023-01-13T21:03:07.070Z,12.30
2023-01-13T21:08:09.613Z,12.40
2023-01-13T21:13:30.945Z,12.50
2023-01-13T21:18:52.106Z,12.60
2023-01-13T21:23:54.878Z,12.60
2023-01-13T21:28:58.624Z,12.10
2023-01-13T21:34:01.520Z,12.10
2023-01-13T21:39:04.300Z,12.20
2023-01-13T21:44:38.952Z,12.30
2023-01-13T21:49:44.374Z,12.20
2023-01-13T21:55:05.363Z,12.80
2023-01-13T22:00:08.788Z,12.80
2023-01-13T22:05:13.844Z,13.00
2023-01-13T22:10:19.068Z,13.00
2023-01-13T22:15:22.716Z,13.00
2023-01-13T22:20:25.256Z,13.20
2023-01-13T22:25:27.789Z,12.90
2023-01-13T22:30:32.584Z,12.90
2023-01-13T22:35:35.404Z,12.60
2023-01-13T22:40:37.827Z,13.10
2023-01-13T22:45:40.578Z,13.00
2023-01-13T22:50:43.859Z,13.10
2023-01-13T22:55:57.586Z,13.10
2023-01-13T23:01:15.638Z,12.40
2023-01-13T23:06:19.354Z,11.90
2023-01-13T23:11:25.027Z,12.10
2023-01-13T23:16:29.263Z,11.80
2023-01-13T23:21:34.621Z,12.10
2023-01-13T23:26:37.638Z,12.40
2023-01-13T23:31:40.364Z,12.60
2023-01-13T23:36:44.446Z,12.20
2023-01-13T23:41:46.867Z,12.10
2023-01-13T23:46:49.465Z,12.50
2023-01-13T23:51:52.534Z,12.50
2023-01-13T23:56:55.246Z,12.20
